createdAt,value
2023-05-24T00:02:16.727Z,17.70
2023-05-24T00:04:52.654Z,13.80
2023-05-24T00:07:24.040Z,16.70
2023-05-24T00:09:53.910Z,14.77
2023-05-24T00:12:26.409Z,12.73
2023-05-24T00:14:56.256Z,14.57
2023-05-24T00:17:29.303Z,16.13
2023-05-24T00:20:07.485Z,13.97
2023-05-24T00:22:37.913Z,17.97
2023-05-24T00:25:08.527Z,17.33
2023-05-24T00:27:41.034Z,15.97
2023-05-24T00:30:11.649Z,15.07
2023-05-24T00:32:41.700Z,16.57
2023-05-24T00:35:12.200Z,17.63
2023-05-24T00:37:49.862Z,17.53
2023-05-24T00:40:19.745Z,18.57
2023-05-24T00:42:52.214Z,15.97
2023-05-24T00:45:22.378Z,15.03
2023-05-24T00:47:52.361Z,12.90
2023-05-24T00:50:22.575Z,21.37
2023-05-24T00:52:54.485Z,19.00
2023-05-24T00:55:24.574Z,16.30
2023-05-24T00:57:58.274Z,16.97
2023-05-24T01:00:29.028Z,16.77
2023-05-24T01:02:59.033Z,17.63
2023-05-24T01:05:28.974Z,12.37
2023-05-24T01:08:07.489Z,15.87
2023-05-24T01:10:46.825Z,18.90
2023-05-24T01:13:31.158Z,17.03
2023-05-24T01:16:05.686Z,20.87
2023-05-24T01:18:38.264Z,17.47
2023-05-24T01:21:19.047Z,8.90
2023-05-24T01:24:01.193Z,15.93
2023-05-24T01:26:41.459Z,13.10
2023-05-24T01:29:15.822Z,10.80
2023-05-24T01:31:46.256Z,13.43
2023-05-24T01:34:16.196Z,17.27
2023-05-24T01:36:48.434Z,16.10
2023-05-24T01:39:18.349Z,15.40
2023-05-24T01:41:55.035Z,16.93
2023-05-24T01:44:34.491Z,11.57
2023-05-24T01:47:17.556Z,16.50
2023-05-24T01:49:53.610Z,18.60
2023-05-24T01:52:26.302Z,13.70
2023-05-24T01:54:59.644Z,11.83
2023-05-24T01:57:31.951Z,15.03
2023-05-24T02:00:06.270Z,12.57
2023-05-24T02:02:36.640Z,15.67
2023-05-24T02:05:07.243Z,14.73
2023-05-24T02:07:37.119Z,15.10
2023-05-24T02:10:07.836Z,14.23
2023-05-24T02:12:37.731Z,14.50
2023-05-24T02:15:11.666Z,12.37
2023-05-24T02:17:43.828Z,12.87
2023-05-24T02:20:15.138Z,15.93
2023-05-24T02:22:45.016Z,8.80
2023-05-24T02:25:14.854Z,16.80
2023-05-24T02:27:47.315Z,10.67
2023-05-24T02:30:19.872Z,12.73
2023-05-24T02:32:51.754Z,16.53
2023-05-24T02:35:36.037Z,13.77
2023-05-24T02:38:06.867Z,15.73
2023-05-24T02:40:37.020Z,19.03
2023-05-24T02:43:07.665Z,13.83
2023-05-24T02:45:45.205Z,15.27
2023-05-24T02:48:36.991Z,14.03
2023-05-24T02:51:08.743Z,8.87
2023-05-24T02:53:40.115Z,17.03
2023-05-24T02:56:13.851Z,12.90
2023-05-24T02:58:53.633Z,13.33
2023-05-24T03:01:26.329Z,13.67
2023-05-24T03:03:57.286Z,13.33
2023-05-24T03:06:28.415Z,15.17
2023-05-24T03:09:04.977Z,15.60
2023-05-24T03:11:37.037Z,13.17
2023-05-24T03:14:13.958Z,14.60
2023-05-24T03:16:48.427Z,13.70
2023-05-24T03:19:23.312Z,17.40
2023-05-24T03:22:02.252Z,15.13
2023-05-24T03:24:32.101Z,20.07
2023-05-24T03:27:08.955Z,18.83
2023-05-24T03:29:42.477Z,16.17
2023-05-24T03:32:14.911Z,15.93
2023-05-24T03:34:48.367Z,15.17
2023-05-24T03:37:19.550Z,14.83
2023-05-24T03:39:52.644Z,14.07
2023-05-24T03:42:22.701Z,17.00
2023-05-24T03:44:53.402Z,14.57
2023-05-24T03:47:29.944Z,16.70
2023-05-24T03:50:01.468Z,15.63
2023-05-24T03:52:34.935Z,14.57
2023-05-24T03:55:07.222Z,16.60
2023-05-24T03:57:37.065Z,13.07
2023-05-24T04:00:12.822Z,10.97
2023-05-24T04:16:03.028Z,14.80
2023-05-24T04:19:15.295Z,9.33
2023-05-24T04:21:53.969Z,13.67
2023-05-24T04:24:25.693Z,12.17
2023-05-24T04:27:00.763Z,15.30
2023-05-24T04:29:38.929Z,16.93
2023-05-24T04:32:10.528Z,12.73
2023-05-24T04:34:48.157Z,15.90
2023-05-24T04:37:21.371Z,17.50
2023-05-24T04:39:52.174Z,20.47
2023-05-24T04:55:47.888Z,15.03
2023-05-24T04:58:19.637Z,16.53
2023-05-24T05:00:52.378Z,17.37
2023-05-24T05:03:30.906Z,10.33
2023-05-24T05:15:28.455Z,13.40
2023-05-24T05:17:58.416Z,12.37
2023-05-24T05:20:28.559Z,15.83
2023-05-24T05:22:58.461Z,16.17
2023-05-24T05:25:30.381Z,13.57
2023-05-24T05:28:00.293Z,14.97
2023-05-24T05:30:32.972Z,11.93
2023-05-24T05:33:02.978Z,11.13
2023-05-24T05:35:33.069Z,12.03
2023-05-24T05:38:03.160Z,11.43
2023-05-24T05:40:33.047Z,11.70
2023-05-24T05:43:03.080Z,13.80
2023-05-24T05:45:35.558Z,12.97
2023-05-24T05:48:07.046Z,9.07
2023-05-24T05:50:36.939Z,12.90
2023-05-24T05:53:06.776Z,9.60
2023-05-24T05:55:36.614Z,13.07
2023-05-24T05:58:06.696Z,15.87
2023-05-24T06:00:43.857Z,7.90
2023-05-24T06:03:16.896Z,7.67
2023-05-24T06:05:46.909Z,9.17
2023-05-24T06:08:16.920Z,9.10
2023-05-24T06:10:53.093Z,7.13
2023-05-24T06:13:27.562Z,7.53
2023-05-24T06:16:02.804Z,8.23
2023-05-24T06:18:34.715Z,9.63
2023-05-24T06:21:08.645Z,10.97
2023-05-24T06:23:40.451Z,9.73
2023-05-24T06:26:11.459Z,11.23
2023-05-24T06:28:41.773Z,10.73
2023-05-24T06:31:15.866Z,8.67
2023-05-24T06:33:52.396Z,16.83
2023-05-24T06:36:26.599Z,10.17
2023-05-24T06:38:56.479Z,9.90
2023-05-24T06:41:27.301Z,13.57
2023-05-24T06:43:57.173Z,12.93
2023-05-24T06:46:29.767Z,13.23
2023-05-24T06:49:00.054Z,11.50
2023-05-24T06:51:30.579Z,12.13
2023-05-24T06:54:01.272Z,15.00
2023-05-24T06:56:31.141Z,11.23
2023-05-24T06:59:02.474Z,18.27
2023-05-24T07:01:35.357Z,12.83
2023-05-24T07:04:07.859Z,13.17
2023-05-24T07:06:37.809Z,10.60
2023-05-24T07:09:08.162Z,13.87
2023-05-24T07:11:38.066Z,13.57
2023-05-24T07:14:14.123Z,10.97
2023-05-24T07:16:46.962Z,10.18
2023-05-24T07:19:18.329Z,12.37
2023-05-24T07:21:48.171Z,12.07
2023-05-24T07:24:18.081Z,10.23
2023-05-24T07:26:48.004Z,10.43
2023-05-24T07:29:20.134Z,13.70
2023-05-24T07:31:52.599Z,11.13
2023-05-24T07:34:24.198Z,9.20
2023-05-24T07:36:54.028Z,10.00
2023-05-24T07:39:25.409Z,9.53
2023-05-24T07:41:56.148Z,8.97
2023-05-24T07:44:26.405Z,6.70
2023-05-24T07:46:58.912Z,7.50
2023-05-24T07:49:28.782Z,8.30
2023-05-24T07:51:59.908Z,8.27
2023-05-24T07:54:29.793Z,8.30
2023-05-24T07:56:59.662Z,5.50
2023-05-24T07:59:29.683Z,8.32
2023-05-24T08:02:07.256Z,6.78
2023-05-24T08:04:37.107Z,8.40
2023-05-24T08:07:09.522Z,7.25
2023-05-24T08:09:40.802Z,8.18
2023-05-24T08:12:11.133Z,7.85
2023-05-24T08:14:41.917Z,9.10
2023-05-24T08:17:14.423Z,7.60
2023-05-24T08:19:44.253Z,5.82
2023-05-24T08:22:15.701Z,7.07
2023-05-24T08:24:45.700Z,7.97
2023-05-24T08:27:15.571Z,6.27
2023-05-24T08:29:45.474Z,6.63
2023-05-24T08:32:17.995Z,5.68
2023-05-24T08:34:47.957Z,9.43
2023-05-24T08:37:19.760Z,9.10
2023-05-24T08:39:52.781Z,7.90
2023-05-24T08:42:26.948Z,6.80
2023-05-24T08:45:02.423Z,7.93
2023-05-24T08:47:36.105Z,7.70
2023-05-24T08:50:06.442Z,9.93
2023-05-24T08:52:37.101Z,7.45
2023-05-24T08:55:07.999Z,6.87
2023-05-24T08:57:42.268Z,7.05
2023-05-24T09:00:14.164Z,7.63
2023-05-24T09:02:48.420Z,8.90
2023-05-24T09:05:22.042Z,7.57
2023-05-24T09:07:53.568Z,10.95
2023-05-24T09:10:24.427Z,11.80
2023-05-24T09:13:00.466Z,8.38
2023-05-24T09:15:30.348Z,9.18
2023-05-24T09:18:04.385Z,10.88
2023-05-24T09:20:34.241Z,5.77
2023-05-24T09:23:07.829Z,11.73
2023-05-24T09:25:37.719Z,10.23
2023-05-24T09:28:10.317Z,6.50
2023-05-24T09:30:40.278Z,7.10
2023-05-24T09:33:13.731Z,6.88
2023-05-24T09:35:46.601Z,6.45
2023-05-24T09:38:21.263Z,6.30
2023-05-24T09:41:00.487Z,8.23
2023-05-24T09:43:30.467Z,9.70
2023-05-24T09:46:01.653Z,7.28
2023-05-24T09:48:35.003Z,14.25
2023-05-24T09:51:10.004Z,10.82
2023-05-24T09:53:40.919Z,16.77
2023-05-24T09:56:11.640Z,12.95
2023-05-24T09:58:42.733Z,10.70
2023-05-24T10:01:14.784Z,10.52
2023-05-24T10:03:58.498Z,8.32
2023-05-24T10:06:28.564Z,10.90
2023-05-24T10:08:59.122Z,9.02
2023-05-24T10:11:29.347Z,13.93
2023-05-24T10:14:02.705Z,10.88
2023-05-24T10:16:32.645Z,13.43
2023-05-24T10:19:05.357Z,10.88
2023-05-24T10:21:36.245Z,9.52
2023-05-24T10:24:10.071Z,7.17
2023-05-24T10:26:42.747Z,9.85
2023-05-24T10:29:19.813Z,9.73
2023-05-24T10:31:50.056Z,11.67
2023-05-24T10:34:23.921Z,8.13
2023-05-24T10:36:53.873Z,9.00
2023-05-24T10:39:25.903Z,10.50
2023-05-24T10:41:59.835Z,8.00
2023-05-24T10:44:36.465Z,11.55
2023-05-24T10:47:18.201Z,11.93
2023-05-24T10:49:54.716Z,15.48
2023-05-24T10:52:24.661Z,9.40
2023-05-24T10:55:15.433Z,9.30
2023-05-24T10:57:45.770Z,9.38
2023-05-24T11:03:05.173Z,12.60
2023-05-24T11:05:53.854Z,9.13
2023-05-24T11:08:33.790Z,8.30
2023-05-24T11:13:45.245Z,12.05
2023-05-24T11:16:39.423Z,17.48
2023-05-24T11:19:18.650Z,10.20
2023-05-24T11:21:53.839Z,10.57
2023-05-24T11:24:25.601Z,10.93
2023-05-24T11:26:57.326Z,7.85
2023-05-24T11:29:27.366Z,11.00
2023-05-24T11:32:01.625Z,7.72
2023-05-24T11:34:32.262Z,12.90
2023-05-24T11:37:06.321Z,9.90
2023-05-24T11:39:38.458Z,11.70
2023-05-24T11:42:09.724Z,10.00
2023-05-24T11:44:41.014Z,10.77
2023-05-24T11:47:12.238Z,9.80
2023-05-24T11:49:42.074Z,10.52
2023-05-24T11:52:18.165Z,12.60
2023-05-24T11:54:48.078Z,13.63
2023-05-24T11:57:19.729Z,12.27
2023-05-24T11:59:49.786Z,8.60
2023-05-24T12:02:19.891Z,14.05
2023-05-24T12:04:49.845Z,7.07
2023-05-24T12:07:22.302Z,8.02
2023-05-24T12:09:52.266Z,9.15
2023-05-24T12:12:27.087Z,10.02
2023-05-24T12:15:07.067Z,11.43
2023-05-24T12:17:37.045Z,12.18
2023-05-24T12:20:09.241Z,10.13
2023-05-24T12:22:41.719Z,10.75
2023-05-24T12:25:16.864Z,12.73
2023-05-24T12:27:48.421Z,11.52
2023-05-24T12:30:21.694Z,7.30
2023-05-24T12:32:51.836Z,13.15
2023-05-24T12:35:25.639Z,8.32
2023-05-24T12:38:02.646Z,7.70
2023-05-24T12:40:36.277Z,7.95
2023-05-24T12:43:07.634Z,9.90
2023-05-24T12:45:38.300Z,11.48
2023-05-24T12:48:08.935Z,11.45
2023-05-24T12:50:38.829Z,9.73
2023-05-24T12:53:11.952Z,12.38
2023-05-24T12:55:43.419Z,11.40
2023-05-24T12:58:16.562Z,10.20
2023-05-24T13:00:50.423Z,8.77
2023-05-24T13:03:20.949Z,11.27
2023-05-24T13:05:51.103Z,7.78
2023-05-24T13:08:23.680Z,9.07
2023-05-24T13:10:54.120Z,8.60
2023-05-24T13:13:28.826Z,6.47
2023-05-24T13:15:59.043Z,8.43
2023-05-24T13:18:29.089Z,8.98
2023-05-24T13:21:00.747Z,6.85
2023-05-24T13:23:33.293Z,10.93
2023-05-24T13:26:03.191Z,9.30
2023-05-24T13:28:33.725Z,5.47
2023-05-24T13:31:04.063Z,5.97
2023-05-24T13:33:34.463Z,10.05
2023-05-24T13:36:04.426Z,9.68
2023-05-24T13:38:36.944Z,6.97
2023-05-24T13:41:06.868Z,5.93
2023-05-24T13:43:37.017Z,8.05
2023-05-24T13:46:07.297Z,11.50
2023-05-24T13:48:38.278Z,9.00
2023-05-24T13:51:11.001Z,7.97
2023-05-24T13:53:43.560Z,9.38
2023-05-24T13:56:13.469Z,8.45
2023-05-24T13:58:46.436Z,9.13
2023-05-24T14:01:17.052Z,12.65
2023-05-24T14:03:46.958Z,8.45
2023-05-24T14:06:16.840Z,10.95
2023-05-24T14:08:49.552Z,8.52
2023-05-24T14:11:19.949Z,5.82
2023-05-24T14:16:24.766Z,6.05
2023-05-24T14:18:57.683Z,10.10
2023-05-24T14:21:27.802Z,7.68
2023-05-24T14:24:00.361Z,7.00
2023-05-24T14:26:30.192Z,12.13
2023-05-24T14:29:03.095Z,9.25
2023-05-24T14:31:34.513Z,8.80
2023-05-24T14:34:04.463Z,8.60
2023-05-24T14:36:34.418Z,7.32
2023-05-24T14:39:07.205Z,11.63
2023-05-24T14:41:37.273Z,6.13
2023-05-24T14:44:09.029Z,7.93
2023-05-24T14:46:39.024Z,9.55
2023-05-24T14:49:09.003Z,6.38
2023-05-24T14:51:38.854Z,6.22
2023-05-24T14:54:14.136Z,7.50
2023-05-24T14:56:44.085Z,7.50
2023-05-24T14:59:14.817Z,7.75
2023-05-24T15:01:44.823Z,6.00
2023-05-24T15:04:20.851Z,10.52
2023-05-24T15:06:51.251Z,7.55
2023-05-24T15:09:23.756Z,8.93
2023-05-24T15:11:53.655Z,7.78
2023-05-24T15:14:26.548Z,7.10
2023-05-24T15:16:59.691Z,5.63
2023-05-24T15:19:31.005Z,5.75
2023-05-24T15:22:00.862Z,6.22
2023-05-24T15:24:33.286Z,4.35
2023-05-24T15:27:03.264Z,6.22
2023-05-24T15:29:36.137Z,6.85
2023-05-24T15:32:05.993Z,5.38
2023-05-24T15:34:37.241Z,8.75
2023-05-24T15:37:08.717Z,9.95
2023-05-24T15:39:54.189Z,6.93
2023-05-24T15:42:24.842Z,9.65
2023-05-24T15:44:56.051Z,4.75
2023-05-24T15:47:30.502Z,7.68
2023-05-24T15:50:02.955Z,5.60
2023-05-24T15:52:36.794Z,6.63
2023-05-24T15:55:12.992Z,5.72
2023-05-24T15:57:42.851Z,9.13
2023-05-24T16:00:14.341Z,7.55
2023-05-24T16:02:57.489Z,8.73
2023-05-24T16:05:28.547Z,8.32
2023-05-24T16:07:58.486Z,6.78
2023-05-24T16:10:31.820Z,5.10
2023-05-24T16:13:14.630Z,6.53
2023-05-24T16:15:51.154Z,7.82
2023-05-24T16:18:22.846Z,6.30
2023-05-24T16:20:56.861Z,5.63
2023-05-24T16:23:28.792Z,10.88
2023-05-24T16:26:03.086Z,8.53
2023-05-24T16:28:32.993Z,8.57
2023-05-24T16:31:04.193Z,6.00
2023-05-24T16:33:34.205Z,6.50
2023-05-24T16:36:04.848Z,10.02
2023-05-24T16:38:34.746Z,9.32
2023-05-24T16:41:07.319Z,6.75
2023-05-24T16:43:37.231Z,7.20
2023-05-24T16:46:07.305Z,8.98
2023-05-24T16:48:37.277Z,6.72
2023-05-24T16:51:07.214Z,7.40
2023-05-24T16:53:37.118Z,7.75
2023-05-24T16:56:10.515Z,3.67
2023-05-24T16:58:40.427Z,5.20
2023-05-24T17:01:10.327Z,5.43
2023-05-24T17:03:40.337Z,6.03
2023-05-24T17:06:10.741Z,8.55
2023-05-24T17:08:45.459Z,8.85
2023-05-24T17:11:19.996Z,5.07
2023-05-24T17:13:51.109Z,6.40
2023-05-24T17:16:22.127Z,5.40
2023-05-24T17:18:52.087Z,6.63
2023-05-24T17:21:22.028Z,6.28
2023-05-24T17:23:51.851Z,6.87
2023-05-24T17:26:26.550Z,5.13
2023-05-24T17:28:56.726Z,5.43
2023-05-24T17:31:26.589Z,8.13
2023-05-24T17:33:57.654Z,7.53
2023-05-24T17:36:27.609Z,9.57
2023-05-24T17:38:59.757Z,8.05
2023-05-24T17:41:32.659Z,5.60
2023-05-24T17:44:02.815Z,8.50
2023-05-24T17:46:34.271Z,6.65
2023-05-24T17:49:06.735Z,9.45
2023-05-24T17:51:39.139Z,6.95
2023-05-24T17:54:09.128Z,7.10
2023-05-24T17:56:41.756Z,7.13
2023-05-24T17:59:11.991Z,8.07
2023-05-24T18:01:41.896Z,9.20
2023-05-24T18:04:11.834Z,8.55
2023-05-24T18:06:41.888Z,5.72
2023-05-24T18:09:13.305Z,4.80
2023-05-24T18:11:46.021Z,5.43
2023-05-24T18:14:15.952Z,8.07
2023-05-24T18:16:46.269Z,7.20
2023-05-24T18:19:16.943Z,4.43
2023-05-24T18:21:46.987Z,5.53
2023-05-24T18:24:16.884Z,6.45
2023-05-24T18:26:51.697Z,8.25
2023-05-24T18:29:24.622Z,8.75
2023-05-24T18:31:54.785Z,9.73
2023-05-24T18:34:27.951Z,3.92
2023-05-24T18:36:57.789Z,7.38
2023-05-24T18:39:27.696Z,5.47
2023-05-24T18:42:00.171Z,6.88
2023-05-24T18:44:30.027Z,6.80
2023-05-24T18:46:59.896Z,8.77
2023-05-24T18:49:30.211Z,5.80
2023-05-24T18:52:00.619Z,8.38
2023-05-24T18:54:31.361Z,5.20
2023-05-24T18:57:04.966Z,8.80
2023-05-24T18:59:34.848Z,6.88
2023-05-24T19:02:04.900Z,7.22
2023-05-24T19:04:35.538Z,6.68
2023-05-24T19:07:05.372Z,5.57
2023-05-24T19:09:36.794Z,6.93
2023-05-24T19:12:11.181Z,8.93
2023-05-24T19:14:44.424Z,7.30
2023-05-24T19:17:14.347Z,8.60
2023-05-24T19:19:44.764Z,10.13
2023-05-24T19:22:14.649Z,6.60
2023-05-24T19:24:46.052Z,7.72
2023-05-24T19:27:18.527Z,9.57
2023-05-24T19:29:48.398Z,8.07
2023-05-24T19:32:18.643Z,7.40
2023-05-24T19:34:48.746Z,3.83
2023-05-24T19:37:18.629Z,6.90
2023-05-24T19:39:48.446Z,8.40
2023-05-24T19:42:21.227Z,6.60
2023-05-24T19:44:51.112Z,7.45
2023-05-24T19:47:21.872Z,7.30
2023-05-24T19:49:51.783Z,5.78
2023-05-24T19:52:21.929Z,9.77
2023-05-24T19:54:51.923Z,5.60
2023-05-24T19:57:31.249Z,9.05
2023-05-24T20:00:01.145Z,7.38
2023-05-24T20:02:31.155Z,8.05
2023-05-24T20:05:01.543Z,6.68
2023-05-24T20:07:31.863Z,8.70
2023-05-24T20:10:03.272Z,8.13
2023-05-24T20:12:35.992Z,7.15
2023-05-24T20:15:06.721Z,7.32
2023-05-24T20:17:36.616Z,8.87
2023-05-24T20:20:07.447Z,6.85
2023-05-24T20:22:37.334Z,5.30
2023-05-24T20:25:08.037Z,6.10
2023-05-24T20:27:42.102Z,5.70
2023-05-24T20:30:12.815Z,6.97
2023-05-24T20:32:42.712Z,7.20
2023-05-24T20:35:13.164Z,6.17
2023-05-24T20:37:43.383Z,6.27
2023-05-24T20:40:15.344Z,9.47
2023-05-24T20:42:47.786Z,5.30
2023-05-24T20:45:17.891Z,6.90
2023-05-24T20:47:47.778Z,7.57
2023-05-24T20:50:17.741Z,6.03
2023-05-24T20:52:47.640Z,7.45
2023-05-24T20:55:19.102Z,5.13
2023-05-24T20:57:52.371Z,6.93
2023-05-24T21:00:22.427Z,10.43
2023-05-24T21:02:52.372Z,4.97
2023-05-24T21:05:22.332Z,7.97
2023-05-24T21:07:52.210Z,9.70
2023-05-24T21:10:23.546Z,6.70
2023-05-24T21:12:56.841Z,8.80
2023-05-24T21:15:26.736Z,5.53
2023-05-24T21:17:56.640Z,6.55
2023-05-24T21:20:26.645Z,8.33
2023-05-24T21:22:56.659Z,8.65
2023-05-24T21:25:26.530Z,7.82
2023-05-24T21:28:05.732Z,9.38
2023-05-24T21:30:35.759Z,5.68
2023-05-24T21:33:20.791Z,5.63
2023-05-24T21:56:25.703Z,11.07
2023-05-24T21:58:57.350Z,7.83
2023-05-24T22:01:30.520Z,7.37
2023-05-24T22:04:06.333Z,6.73
2023-05-24T22:06:38.446Z,5.70
2023-05-24T22:09:08.463Z,6.83
2023-05-24T22:11:38.434Z,7.90
2023-05-24T22:14:08.877Z,9.50
2023-05-24T22:16:38.976Z,6.50
2023-05-24T22:19:18.498Z,6.83
2023-05-24T22:21:58.430Z,6.75
2023-05-24T22:24:28.345Z,6.63
2023-05-24T22:26:59.552Z,6.60
2023-05-24T22:29:29.549Z,9.03
2023-05-24T22:31:59.467Z,7.13
2023-05-24T22:34:32.280Z,7.17
2023-05-24T22:37:17.418Z,7.40
2023-05-24T22:39:49.209Z,7.67
2023-05-24T22:42:22.535Z,7.73
2023-05-24T22:44:52.407Z,8.83
2023-05-24T22:47:23.214Z,4.17
2023-05-24T22:49:57.454Z,5.63
2023-05-24T22:52:29.279Z,5.60
2023-05-24T22:54:59.139Z,6.00
2023-05-24T22:57:29.066Z,6.70
2023-05-24T22:59:58.958Z,7.43
2023-05-24T23:02:29.962Z,7.70
2023-05-24T23:05:04.149Z,6.57
2023-05-24T23:07:34.114Z,6.33
2023-05-24T23:10:06.439Z,8.00
2023-05-24T23:12:37.672Z,6.03
2023-05-24T23:15:13.404Z,6.65
2023-05-24T23:17:53.865Z,7.77
2023-05-24T23:20:29.741Z,8.93
2023-05-24T23:23:02.883Z,6.20
2023-05-24T23:25:36.892Z,8.60
2023-05-24T23:28:13.595Z,6.83
2023-05-24T23:30:46.627Z,10.17
2023-05-24T23:33:16.561Z,5.97
2023-05-24T23:35:51.691Z,9.00
2023-05-24T23:38:21.982Z,7.90
2023-05-24T23:40:54.813Z,7.88
2023-05-24T23:43:24.657Z,7.37
2023-05-24T23:45:57.196Z,8.00
2023-05-24T23:48:31.178Z,6.43
2023-05-24T23:51:06.410Z,5.63
2023-05-24T23:53:37.553Z,7.50
2023-05-24T23:56:18.708Z,9.80
2023-05-24T23:58:51.953Z,5.33
